sensor_id;sensor_type;location;lat;lon;timestamp;pressure;altitude;pressure_sealevel;temperature;humidity
81641;BME280;74020;50.722;-1.944;2023-12-04T00:02:24;99478.91;;;7.74;100.00
81641;BME280;74020;50.722;-1.944;2023-12-04T00:04:50;99468.63;;;7.70;100.00
81641;BME280;74020;50.722;-1.944;2023-12-04T00:07:15;99464.69;;;7.70;100.00
81641;BME280;74020;50.722;-1.944;2023-12-04T00:09:41;99455.11;;;7.62;100.00
81641;BME280;74020;50.722;-1.944;2023-12-04T00:12:06;99440.97;;;7.62;100.00
81641;BME280;74020;50.722;-1.944;2023-12-04T00:14:31;99441.49;;;7.67;100.00
81641;BME280;74020;50.722;-1.944;2023-12-04T00:16:57;99435.40;;;7.71;100.00
81641;BME280;74020;50.722;-1.944;2023-12-04T00:19:22;99428.75;;;7.67;100.00
81641;BME280;74020;50.722;-1.944;2023-12-04T00:21:48;99432.44;;;7.74;100.00
81641;BME280;74020;50.722;-1.944;2023-12-04T00:24:13;99417.24;;;7.66;100.00
81641;BME280;74020;50.722;-1.944;2023-12-04T00:26:39;99413.77;;;7.61;100.00
81641;BME280;74020;50.722;-1.944;2023-12-04T00:29:04;99406.84;;;7.60;100.00
81641;BME280;74020;50.722;-1.944;2023-12-04T00:31:30;99402.57;;;7.66;100.00
81641;BME280;74020;50.722;-1.944;2023-12-04T00:33:55;99406.79;;;7.66;100.00
81641;BME280;74020;50.722;-1.944;2023-12-04T00:36:20;99395.74;;;7.69;100.00
81641;BME280;74020;50.722;-1.944;2023-12-04T00:38:46;99388.89;;;7.68;100.00
81641;BME280;74020;50.722;-1.944;2023-12-04T00:41:11;99380.07;;;7.62;100.00
81641;BME280;74020;50.722;-1.944;2023-12-04T00:43:37;99374.57;;;7.63;100.00
81641;BME280;74020;50.722;-1.944;2023-12-04T00:46:03;99370.66;;;7.59;100.00
81641;BME280;74020;50.722;-1.944;2023-12-04T00:48:28;99366.08;;;7.59;100.00
81641;BME280;74020;50.722;-1.944;2023-12-04T00:50:54;99359.96;;;7.63;100.00
81641;BME280;74020;50.722;-1.944;2023-12-04T00:53:19;99360.02;;;7.66;100.00
81641;BME280;74020;50.722;-1.944;2023-12-04T00:55:44;99353.82;;;7.65;100.00
81641;BME280;74020;50.722;-1.944;2023-12-04T00:58:09;99347.93;;;7.71;100.00
81641;BME280;74020;50.722;-1.944;2023-12-04T01:00:35;99342.72;;;7.69;100.00
81641;BME280;74020;50.722;-1.944;2023-12-04T01:03:00;99340.08;;;7.79;100.00
81641;BME280;74020;50.722;-1.944;2023-12-04T01:05:25;99328.67;;;7.77;100.00
81641;BME280;74020;50.722;-1.944;2023-12-04T01:07:51;99324.91;;;7.81;100.00
81641;BME280;74020;50.722;-1.944;2023-12-04T01:10:17;99315.29;;;7.71;100.00
81641;BME280;74020;50.722;-1.944;2023-12-04T01:12:42;99315.29;;;7.75;100.00
81641;BME280;74020;50.722;-1.944;2023-12-04T01:15:08;99308.32;;;7.78;100.00
81641;BME280;74020;50.722;-1.944;2023-12-04T01:17:33;99305.38;;;7.76;100.00
81641;BME280;74020;50.722;-1.944;2023-12-04T01:19:58;99300.52;;;7.73;100.00
81641;BME280;74020;50.722;-1.944;2023-12-04T01:22:26;99290.03;;;7.82;100.00
81641;BME280;74020;50.722;-1.944;2023-12-04T01:24:49;99285.79;;;7.81;100.00
81641;BME280;74020;50.722;-1.944;2023-12-04T01:27:15;99276.48;;;7.82;100.00
81641;BME280;74020;50.722;-1.944;2023-12-04T01:29:40;99266.04;;;7.95;100.00
81641;BME280;74020;50.722;-1.944;2023-12-04T01:32:06;99268.61;;;7.89;100.00
81641;BME280;74020;50.722;-1.944;2023-12-04T01:34:31;99261.01;;;7.98;100.00
81641;BME280;74020;50.722;-1.944;2023-12-04T01:36:56;99251.33;;;8.03;100.00
81641;BME280;74020;50.722;-1.944;2023-12-04T01:39:22;99247.02;;;8.05;100.00
81641;BME280;74020;50.722;-1.944;2023-12-04T01:41:48;99244.94;;;8.06;100.00
81641;BME280;74020;50.722;-1.944;2023-12-04T01:44:13;99242.73;;;8.09;100.00
81641;BME280;74020;50.722;-1.944;2023-12-04T01:46:39;99245.90;;;8.06;100.00
81641;BME280;74020;50.722;-1.944;2023-12-04T01:49:04;99232.82;;;8.06;100.00
81641;BME280;74020;50.722;-1.944;2023-12-04T01:51:30;99223.81;;;8.09;100.00
81641;BME280;74020;50.722;-1.944;2023-12-04T01:53:57;99233.95;;;8.17;100.00
81641;BME280;74020;50.722;-1.944;2023-12-04T01:56:20;99229.25;;;8.21;100.00
81641;BME280;74020;50.722;-1.944;2023-12-04T01:58:45;99223.46;;;8.28;100.00
81641;BME280;74020;50.722;-1.944;2023-12-04T02:01:11;99219.69;;;8.22;100.00
81641;BME280;74020;50.722;-1.944;2023-12-04T02:03:36;99220.18;;;8.26;100.00
81641;BME280;74020;50.722;-1.944;2023-12-04T02:06:02;99214.14;;;8.23;100.00
81641;BME280;74020;50.722;-1.944;2023-12-04T02:08:27;99209.39;;;8.42;100.00
81641;BME280;74020;50.722;-1.944;2023-12-04T02:10:52;99191.02;;;8.40;100.00
81641;BME280;74020;50.722;-1.944;2023-12-04T02:13:18;99197.76;;;8.39;100.00
81641;BME280;74020;50.722;-1.944;2023-12-04T02:15:44;99195.21;;;8.34;100.00
81641;BME280;74020;50.722;-1.944;2023-12-04T02:18:08;99190.45;;;8.34;100.00
81641;BME280;74020;50.722;-1.944;2023-12-04T02:20:34;99185.13;;;8.32;100.00
81641;BME280;74020;50.722;-1.944;2023-12-04T02:23:00;99188.79;;;8.37;100.00
81641;BME280;74020;50.722;-1.944;2023-12-04T02:25:25;99191.61;;;8.40;100.00
81641;BME280;74020;50.722;-1.944;2023-12-04T02:27:52;99185.27;;;8.47;100.00
81641;BME280;74020;50.722;-1.944;2023-12-04T02:30:18;99193.64;;;8.47;100.00
81641;BME280;74020;50.722;-1.944;2023-12-04T02:32:45;99176.18;;;8.43;100.00
81641;BME280;74020;50.722;-1.944;2023-12-04T02:35:08;99176.87;;;8.37;100.00
81641;BME280;74020;50.722;-1.944;2023-12-04T02:37:32;99172.90;;;8.47;100.00
81641;BME280;74020;50.722;-1.944;2023-12-04T02:39:58;99170.62;;;8.49;100.00
81641;BME280;74020;50.722;-1.944;2023-12-04T02:42:23;99165.78;;;8.51;100.00
81641;BME280;74020;50.722;-1.944;2023-12-04T02:44:48;99159.10;;;8.42;100.00
81641;BME280;74020;50.722;-1.944;2023-12-04T02:47:14;99157.47;;;8.41;100.00
81641;BME280;74020;50.722;-1.944;2023-12-04T02:49:39;99158.29;;;8.41;100.00
81641;BME280;74020;50.722;-1.944;2023-12-04T02:52:05;99160.82;;;8.38;100.00
81641;BME280;74020;50.722;-1.944;2023-12-04T02:54:30;99156.75;;;8.46;100.00
81641;BME280;74020;50.722;-1.944;2023-12-04T02:56:55;99154.64;;;8.51;100.00
81641;BME280;74020;50.722;-1.944;2023-12-04T02:59:20;99151.58;;;8.52;100.00
81641;BME280;74020;50.722;-1.944;2023-12-04T03:01:46;99149.42;;;8.60;100.00
81641;BME280;74020;50.722;-1.944;2023-12-04T03:04:11;99147.78;;;8.70;100.00
81641;BME280;74020;50.722;-1.944;2023-12-04T03:06:37;99150.50;;;8.81;100.00
81641;BME280;74020;50.722;-1.944;2023-12-04T03:09:03;99139.70;;;8.84;100.00
81641;BME280;74020;50.722;-1.944;2023-12-04T03:11:27;99139.00;;;8.85;100.00
81641;BME280;74020;50.722;-1.944;2023-12-04T03:13:53;99133.10;;;8.84;100.00
81641;BME280;74020;50.722;-1.944;2023-12-04T03:16:19;99130.23;;;8.82;100.00
81641;BME280;74020;50.722;-1.944;2023-12-04T03:18:44;99126.73;;;8.91;100.00
81641;BME280;74020;50.722;-1.944;2023-12-04T03:21:09;99124.15;;;8.74;100.00
81641;BME280;74020;50.722;-1.944;2023-12-04T03:23:35;99116.03;;;8.72;100.00
81641;BME280;74020;50.722;-1.944;2023-12-04T03:26:00;99105.87;;;8.78;100.00
81641;BME280;74020;50.722;-1.944;2023-12-04T03:28:25;99106.82;;;8.79;100.00
81641;BME280;74020;50.722;-1.944;2023-12-04T03:30:51;99110.22;;;8.81;100.00
81641;BME280;74020;50.722;-1.944;2023-12-04T03:33:16;99102.80;;;8.85;100.00
81641;BME280;74020;50.722;-1.944;2023-12-04T03:35:41;99103.49;;;8.83;100.00
81641;BME280;74020;50.722;-1.944;2023-12-04T03:38:06;99094.99;;;8.87;100.00
81641;BME280;74020;50.722;-1.944;2023-12-04T03:40:32;99098.96;;;8.90;100.00
81641;BME280;74020;50.722;-1.944;2023-12-04T03:42:57;99090.83;;;8.86;100.00
81641;BME280;74020;50.722;-1.944;2023-12-04T03:45:23;99095.85;;;8.88;100.00
81641;BME280;74020;50.722;-1.944;2023-12-04T03:47:48;99089.07;;;8.82;100.00
81641;BME280;74020;50.722;-1.944;2023-12-04T03:50:13;99087.78;;;8.91;100.00
81641;BME280;74020;50.722;-1.944;2023-12-04T03:52:39;99082.20;;;8.98;100.00
81641;BME280;74020;50.722;-1.944;2023-12-04T03:55:05;99078.07;;;9.06;100.00
81641;BME280;74020;50.722;-1.944;2023-12-04T03:57:30;99073.01;;;9.04;100.00
81641;BME280;74020;50.722;-1.944;2023-12-04T03:59:55;99078.26;;;9.08;100.00
81641;BME280;74020;50.722;-1.944;2023-12-04T04:02:20;99070.16;;;9.07;100.00
81641;BME280;74020;50.722;-1.944;2023-12-04T04:04:46;99073.26;;;9.07;100.00
81641;BME280;74020;50.722;-1.944;2023-12-04T04:07:11;99064.44;;;9.07;100.00
81641;BME280;74020;50.722;-1.944;2023-12-04T04:09:36;99065.70;;;9.07;100.00
81641;BME280;74020;50.722;-1.944;2023-12-04T04:12:02;99062.15;;;9.10;100.00
81641;BME280;74020;50.722;-1.944;2023-12-04T04:14:27;99057.41;;;9.04;100.00
81641;BME280;74020;50.722;-1.944;2023-12-04T04:16:52;99063.43;;;9.05;100.00
81641;BME280;74020;50.722;-1.944;2023-12-04T04:19:17;99060.84;;;9.08;100.00
81641;BME280;74020;50.722;-1.944;2023-12-04T04:21:43;99059.93;;;9.10;100.00
81641;BME280;74020;50.722;-1.944;2023-12-04T04:24:08;99045.21;;;9.16;100.00
81641;BME280;74020;50.722;-1.944;2023-12-04T04:26:34;99051.60;;;9.16;100.00
81641;BME280;74020;50.722;-1.944;2023-12-04T04:28:59;99052.38;;;9.02;100.00
81641;BME280;74020;50.722;-1.944;2023-12-04T04:31:25;99052.62;;;9.05;100.00
81641;BME280;74020;50.722;-1.944;2023-12-04T04:33:50;99043.51;;;9.10;100.00
81641;BME280;74020;50.722;-1.944;2023-12-04T04:36:15;99055.65;;;9.03;100.00
81641;BME280;74020;50.722;-1.944;2023-12-04T04:38:40;99047.73;;;9.05;100.00
81641;BME280;74020;50.722;-1.944;2023-12-04T04:41:06;99042.74;;;9.15;100.00
81641;BME280;74020;50.722;-1.944;2023-12-04T04:43:31;99041.37;;;8.97;100.00
81641;BME280;74020;50.722;-1.944;2023-12-04T04:45:56;99035.42;;;9.13;100.00
81641;BME280;74020;50.722;-1.944;2023-12-04T04:48:21;99033.62;;;9.11;100.00
81641;BME280;74020;50.722;-1.944;2023-12-04T04:50:47;99037.59;;;9.20;100.00
81641;BME280;74020;50.722;-1.944;2023-12-04T04:53:12;99029.24;;;9.26;100.00
81641;BME280;74020;50.722;-1.944;2023-12-04T04:55:38;99028.78;;;9.10;100.00
81641;BME280;74020;50.722;-1.944;2023-12-04T04:58:03;99024.04;;;9.12;100.00
81641;BME280;74020;50.722;-1.944;2023-12-04T05:00:29;99020.82;;;9.15;100.00
81641;BME280;74020;50.722;-1.944;2023-12-04T05:02:54;99016.02;;;9.14;100.00
81641;BME280;74020;50.722;-1.944;2023-12-04T05:05:20;99017.11;;;9.22;100.00
81641;BME280;74020;50.722;-1.944;2023-12-04T05:07:45;99013.79;;;9.29;100.00
81641;BME280;74020;50.722;-1.944;2023-12-04T05:10:10;99017.00;;;9.32;100.00
81641;BME280;74020;50.722;-1.944;2023-12-04T05:12:35;99014.40;;;9.28;100.00
81641;BME280;74020;50.722;-1.944;2023-12-04T05:15:01;99012.03;;;9.20;100.00
81641;BME280;74020;50.722;-1.944;2023-12-04T05:17:27;99013.95;;;9.11;100.00
81641;BME280;74020;50.722;-1.944;2023-12-04T05:19:52;99007.17;;;9.10;100.00
81641;BME280;74020;50.722;-1.944;2023-12-04T05:22:17;99005.80;;;9.13;100.00
81641;BME280;74020;50.722;-1.944;2023-12-04T05:24:43;99006.54;;;9.15;100.00
81641;BME280;74020;50.722;-1.944;2023-12-04T05:27:08;99001.32;;;9.11;100.00
81641;BME280;74020;50.722;-1.944;2023-12-04T05:29:34;99001.65;;;9.13;100.00
81641;BME280;74020;50.722;-1.944;2023-12-04T05:31:59;98998.30;;;9.15;100.00
81641;BME280;74020;50.722;-1.944;2023-12-04T05:34:25;98995.38;;;9.12;100.00
81641;BME280;74020;50.722;-1.944;2023-12-04T05:36:50;98999.00;;;9.19;100.00
81641;BME280;74020;50.722;-1.944;2023-12-04T05:39:16;98996.51;;;9.25;100.00
81641;BME280;74020;50.722;-1.944;2023-12-04T05:41:41;98991.06;;;9.21;100.00
81641;BME280;74020;50.722;-1.944;2023-12-04T05:44:07;98985.87;;;9.23;100.00
81641;BME280;74020;50.722;-1.944;2023-12-04T05:46:33;98989.63;;;9.27;100.00
81641;BME280;74020;50.722;-1.944;2023-12-04T05:48:58;98986.94;;;9.27;100.00
81641;BME280;74020;50.722;-1.944;2023-12-04T05:51:23;98983.24;;;9.19;100.00
81641;BME280;74020;50.722;-1.944;2023-12-04T05:53:49;98983.10;;;9.30;100.00
81641;BME280;74020;50.722;-1.944;2023-12-04T05:56:14;98975.70;;;9.34;100.00
81641;BME280;74020;50.722;-1.944;2023-12-04T05:58:39;98970.76;;;9.33;100.00
81641;BME280;74020;50.722;-1.944;2023-12-04T06:01:05;98973.70;;;9.36;100.00
81641;BME280;74020;50.722;-1.944;2023-12-04T06:03:30;98967.88;;;9.46;100.00
81641;BME280;74020;50.722;-1.944;2023-12-04T06:05:55;98969.57;;;9.39;100.00
81641;BME280;74020;50.722;-1.944;2023-12-04T06:08:21;98965.78;;;9.34;100.00
81641;BME280;74020;50.722;-1.944;2023-12-04T06:10:46;98959.81;;;9.51;100.00
81641;BME280;74020;50.722;-1.944;2023-12-04T06:13:11;98957.14;;;9.47;100.00
81641;BME280;74020;50.722;-1.944;2023-12-04T06:15:36;98961.22;;;9.42;100.00
81641;BME280;74020;50.722;-1.944;2023-12-04T06:18:02;98959.90;;;9.63;100.00
81641;BME280;74020;50.722;-1.944;2023-12-04T06:20:27;98956.63;;;9.61;100.00
81641;BME280;74020;50.722;-1.944;2023-12-04T06:22:53;98950.46;;;9.59;100.00
81641;BME280;74020;50.722;-1.944;2023-12-04T06:25:18;98949.78;;;9.76;100.00
81641;BME280;74020;50.722;-1.944;2023-12-04T06:27:43;98947.19;;;9.63;100.00
81641;BME280;74020;50.722;-1.944;2023-12-04T06:30:09;98940.86;;;9.74;100.00
81641;BME280;74020;50.722;-1.944;2023-12-04T06:32:34;98939.04;;;9.74;100.00
81641;BME280;74020;50.722;-1.944;2023-12-04T06:35:00;98936.18;;;9.72;100.00
81641;BME280;74020;50.722;-1.944;2023-12-04T06:37:25;98936.64;;;9.86;100.00
81641;BME280;74020;50.722;-1.944;2023-12-04T06:39:51;98935.08;;;9.84;100.00
81641;BME280;74020;50.722;-1.944;2023-12-04T06:42:16;98936.25;;;9.77;100.00
81641;BME280;74020;50.722;-1.944;2023-12-04T06:44:41;98932.95;;;9.73;100.00
81641;BME280;74020;50.722;-1.944;2023-12-04T06:47:08;98929.02;;;9.74;100.00
81641;BME280;74020;50.722;-1.944;2023-12-04T06:49:32;98930.88;;;9.77;100.00
81641;BME280;74020;50.722;-1.944;2023-12-04T06:51:56;98931.35;;;9.87;100.00
81641;BME280;74020;50.722;-1.944;2023-12-04T06:54:21;98925.59;;;9.88;100.00
81641;BME280;74020;50.722;-1.944;2023-12-04T06:56:47;98924.48;;;9.82;100.00
81641;BME280;74020;50.722;-1.944;2023-12-04T06:59:12;98921.80;;;9.74;100.00
81641;BME280;74020;50.722;-1.944;2023-12-04T07:01:39;98919.26;;;9.80;100.00
81641;BME280;74020;50.722;-1.944;2023-12-04T07:04:03;98917.96;;;9.80;100.00
81641;BME280;74020;50.722;-1.944;2023-12-04T07:06:28;98917.27;;;9.85;100.00
81641;BME280;74020;50.722;-1.944;2023-12-04T07:08:53;98914.84;;;9.88;100.00
81641;BME280;74020;50.722;-1.944;2023-12-04T07:11:19;98913.08;;;9.75;100.00
81641;BME280;74020;50.722;-1.944;2023-12-04T07:13:44;98908.21;;;9.66;100.00
81641;BME280;74020;50.722;-1.944;2023-12-04T07:16:10;98906.17;;;9.85;100.00
81641;BME280;74020;50.722;-1.944;2023-12-04T07:18:35;98904.65;;;9.92;100.00
81641;BME280;74020;50.722;-1.944;2023-12-04T07:21:00;98903.70;;;10.00;100.00
81641;BME280;74020;50.722;-1.944;2023-12-04T07:23:26;98905.53;;;10.09;100.00
81641;BME280;74020;50.722;-1.944;2023-12-04T07:25:51;98904.50;;;10.02;100.00
81641;BME280;74020;50.722;-1.944;2023-12-04T07:28:16;98902.09;;;10.01;100.00
81641;BME280;74020;50.722;-1.944;2023-12-04T07:30:41;98898.39;;;9.92;100.00
81641;BME280;74020;50.722;-1.944;2023-12-04T07:33:07;98895.23;;;9.95;100.00
81641;BME280;74020;50.722;-1.944;2023-12-04T07:35:32;98891.22;;;9.89;100.00
81641;BME280;74020;50.722;-1.944;2023-12-04T07:37:57;98895.06;;;9.75;100.00
81641;BME280;74020;50.722;-1.944;2023-12-04T07:40:23;98893.97;;;9.83;100.00
81641;BME280;74020;50.722;-1.944;2023-12-04T07:42:48;98890.59;;;9.87;100.00
81641;BME280;74020;50.722;-1.944;2023-12-04T07:45:14;98891.05;;;9.74;100.00
81641;BME280;74020;50.722;-1.944;2023-12-04T07:47:39;98895.51;;;9.66;100.00
81641;BME280;74020;50.722;-1.944;2023-12-04T07:50:06;98887.58;;;9.84;100.00
81641;BME280;74020;50.722;-1.944;2023-12-04T07:52:30;98892.39;;;9.70;100.00
81641;BME280;74020;50.722;-1.944;2023-12-04T07:54:55;98895.43;;;9.73;100.00
81641;BME280;74020;50.722;-1.944;2023-12-04T07:57:22;98895.27;;;9.74;100.00
81641;BME280;74020;50.722;-1.944;2023-12-04T07:59:46;98894.23;;;9.65;100.00
81641;BME280;74020;50.722;-1.944;2023-12-04T08:02:12;98896.17;;;9.70;100.00
81641;BME280;74020;50.722;-1.944;2023-12-04T08:04:37;98892.99;;;9.59;100.00
81641;BME280;74020;50.722;-1.944;2023-12-04T08:07:03;98895.93;;;9.57;100.00
81641;BME280;74020;50.722;-1.944;2023-12-04T08:09:28;98892.10;;;9.52;100.00
81641;BME280;74020;50.722;-1.944;2023-12-04T08:11:53;98892.38;;;9.63;100.00
81641;BME280;74020;50.722;-1.944;2023-12-04T08:14:19;98894.15;;;9.71;100.00
81641;BME280;74020;50.722;-1.944;2023-12-04T08:16:44;98893.33;;;9.71;100.00
81641;BME280;74020;50.722;-1.944;2023-12-04T08:19:10;98892.46;;;9.72;100.00
81641;BME280;74020;50.722;-1.944;2023-12-04T08:21:35;98895.46;;;9.64;100.00
81641;BME280;74020;50.722;-1.944;2023-12-04T08:24:00;98894.83;;;9.67;100.00
81641;BME280;74020;50.722;-1.944;2023-12-04T08:26:25;98895.55;;;9.55;100.00
81641;BME280;74020;50.722;-1.944;2023-12-04T08:28:51;98896.45;;;9.50;100.00
81641;BME280;74020;50.722;-1.944;2023-12-04T08:31:16;98894.06;;;9.37;100.00
81641;BME280;74020;50.722;-1.944;2023-12-04T08:33:41;98886.97;;;9.36;100.00
81641;BME280;74020;50.722;-1.944;2023-12-04T08:36:07;98886.93;;;9.32;100.00
81641;BME280;74020;50.722;-1.944;2023-12-04T08:38:32;98892.33;;;9.51;100.00
81641;BME280;74020;50.722;-1.944;2023-12-04T08:40:57;98893.36;;;9.49;100.00
81641;BME280;74020;50.722;-1.944;2023-12-04T08:43:22;98894.78;;;9.42;100.00
81641;BME280;74020;50.722;-1.944;2023-12-04T08:45:48;98895.12;;;9.41;100.00
81641;BME280;74020;50.722;-1.944;2023-12-04T08:48:13;98895.48;;;9.44;100.00
81641;BME280;74020;50.722;-1.944;2023-12-04T08:50:38;98896.81;;;9.41;100.00
81641;BME280;74020;50.722;-1.944;2023-12-04T08:53:04;98898.26;;;9.52;100.00
81641;BME280;74020;50.722;-1.944;2023-12-04T08:55:29;98896.84;;;9.55;100.00
81641;BME280;74020;50.722;-1.944;2023-12-04T08:57:55;98893.47;;;9.37;100.00
81641;BME280;74020;50.722;-1.944;2023-12-04T09:00:20;98892.48;;;9.30;100.00
81641;BME280;74020;50.722;-1.944;2023-12-04T09:02:46;98891.93;;;9.41;100.00
81641;BME280;74020;50.722;-1.944;2023-12-04T09:05:11;98892.95;;;9.41;100.00
81641;BME280;74020;50.722;-1.944;2023-12-04T09:07:36;98894.40;;;9.50;100.00
81641;BME280;74020;50.722;-1.944;2023-12-04T09:10:02;98897.27;;;9.50;100.00
81641;BME280;74020;50.722;-1.944;2023-12-04T09:12:27;98894.08;;;9.51;100.00
81641;BME280;74020;50.722;-1.944;2023-12-04T09:14:52;98893.59;;;9.47;100.00
81641;BME280;74020;50.722;-1.944;2023-12-04T09:17:17;98893.59;;;9.38;100.00
81641;BME280;74020;50.722;-1.944;2023-12-04T09:19:43;98886.88;;;9.33;100.00
81641;BME280;74020;50.722;-1.944;2023-12-04T09:22:08;98886.75;;;9.43;100.00
81641;BME280;74020;50.722;-1.944;2023-12-04T09:24:34;98885.21;;;9.48;100.00
81641;BME280;74020;50.722;-1.944;2023-12-04T09:26:59;98882.79;;;9.36;100.00
81641;BME280;74020;50.722;-1.944;2023-12-04T09:29:25;98885.93;;;9.58;100.00
81641;BME280;74020;50.722;-1.944;2023-12-04T09:31:51;98890.42;;;9.68;100.00
81641;BME280;74020;50.722;-1.944;2023-12-04T09:34:15;98892.15;;;9.69;100.00
81641;BME280;74020;50.722;-1.944;2023-12-04T09:36:41;98891.73;;;9.40;100.00
81641;BME280;74020;50.722;-1.944;2023-12-04T09:39:06;98893.31;;;9.41;100.00
81641;BME280;74020;50.722;-1.944;2023-12-04T09:41:32;98893.31;;;9.48;100.00
81641;BME280;74020;50.722;-1.944;2023-12-04T09:43:57;98898.12;;;9.55;100.00
81641;BME280;74020;50.722;-1.944;2023-12-04T09:46:22;98895.26;;;9.47;100.00
81641;BME280;74020;50.722;-1.944;2023-12-04T09:48:49;98895.22;;;9.60;100.00
81641;BME280;74020;50.722;-1.944;2023-12-04T09:51:15;98892.65;;;9.73;100.00
81641;BME280;74020;50.722;-1.944;2023-12-04T09:53:40;98891.00;;;9.64;100.00
81641;BME280;74020;50.722;-1.944;2023-12-04T09:56:07;98892.43;;;9.69;100.00
81641;BME280;74020;50.722;-1.944;2023-12-04T09:58:31;98891.00;;;9.92;100.00
81641;BME280;74020;50.722;-1.944;2023-12-04T10:00:56;98895.66;;;9.80;100.00
81641;BME280;74020;50.722;-1.944;2023-12-04T10:03:21;98893.44;;;9.77;100.00
81641;BME280;74020;50.722;-1.944;2023-12-04T10:05:47;98892.80;;;9.94;100.00
81641;BME280;74020;50.722;-1.944;2023-12-04T10:08:12;98894.35;;;9.98;100.00
81641;BME280;74020;50.722;-1.944;2023-12-04T10:10:37;98894.24;;;10.14;100.00
81641;BME280;74020;50.722;-1.944;2023-12-04T10:13:02;98893.45;;;10.07;100.00
81641;BME280;74020;50.722;-1.944;2023-12-04T10:15:28;98891.40;;;10.06;100.00
81641;BME280;74020;50.722;-1.944;2023-12-04T10:17:53;98892.49;;;10.20;100.00
81641;BME280;74020;50.722;-1.944;2023-12-04T10:20:19;98891.10;;;10.34;100.00
81641;BME280;74020;50.722;-1.944;2023-12-04T10:22:53;98893.05;;;10.19;100.00
81641;BME280;74020;50.722;-1.944;2023-12-04T10:25:15;98889.56;;;10.37;100.00
81641;BME280;74020;50.722;-1.944;2023-12-04T10:27:35;98891.23;;;10.35;100.00
81641;BME280;74020;50.722;-1.944;2023-12-04T10:30:00;98887.88;;;10.45;100.00
81641;BME280;74020;50.722;-1.944;2023-12-04T10:32:26;98888.91;;;10.50;100.00
81641;BME280;74020;50.722;-1.944;2023-12-04T10:34:51;98888.06;;;10.43;100.00
81641;BME280;74020;50.722;-1.944;2023-12-04T10:37:16;98891.06;;;10.57;100.00
81641;BME280;74020;50.722;-1.944;2023-12-04T10:39:48;98884.36;;;10.69;99.81
81641;BME280;74020;50.722;-1.944;2023-12-04T10:42:07;98881.71;;;10.70;98.73
81641;BME280;74020;50.722;-1.944;2023-12-04T10:44:32;98878.09;;;10.71;98.99
81641;BME280;74020;50.722;-1.944;2023-12-04T10:46:59;98879.59;;;10.46;99.76
81641;BME280;74020;50.722;-1.944;2023-12-04T10:49:26;98874.68;;;10.56;100.00
81641;BME280;74020;50.722;-1.944;2023-12-04T10:51:48;98871.56;;;10.72;100.00
81641;BME280;74020;50.722;-1.944;2023-12-04T10:54:13;98868.04;;;10.70;100.00
81641;BME280;74020;50.722;-1.944;2023-12-04T10:56:40;98866.30;;;10.92;100.00
81641;BME280;74020;50.722;-1.944;2023-12-04T10:59:10;98864.32;;;10.81;100.00
81641;BME280;74020;50.722;-1.944;2023-12-04T11:01:30;98861.03;;;10.78;100.00
81641;BME280;74020;50.722;-1.944;2023-12-04T11:03:56;98863.09;;;10.85;100.00
81641;BME280;74020;50.722;-1.944;2023-12-04T11:06:23;98862.32;;;10.90;100.00
81641;BME280;74020;50.722;-1.944;2023-12-04T11:11:14;98856.27;;;10.88;100.00
81641;BME280;74020;50.722;-1.944;2023-12-04T11:13:39;98854.21;;;11.03;100.00
81641;BME280;74020;50.722;-1.944;2023-12-04T11:16:04;98849.86;;;11.13;99.08
81641;BME280;74020;50.722;-1.944;2023-12-04T11:18:29;98847.00;;;11.30;98.55
81641;BME280;74020;50.722;-1.944;2023-12-04T11:20:56;98843.29;;;11.28;98.57
81641;BME280;74020;50.722;-1.944;2023-12-04T11:23:18;98841.77;;;11.02;98.56
81641;BME280;74020;50.722;-1.944;2023-12-04T11:25:44;98841.20;;;11.21;100.00
81641;BME280;74020;50.722;-1.944;2023-12-04T11:28:09;98838.25;;;11.18;98.41
81641;BME280;74020;50.722;-1.944;2023-12-04T11:30:34;98839.49;;;11.07;100.00
81641;BME280;74020;50.722;-1.944;2023-12-04T11:33:00;98839.41;;;11.22;99.02
81641;BME280;74020;50.722;-1.944;2023-12-04T11:35:26;98837.76;;;11.27;99.80
81641;BME280;74020;50.722;-1.944;2023-12-04T11:37:52;98836.83;;;11.12;100.00
81641;BME280;74020;50.722;-1.944;2023-12-04T11:40:15;98836.33;;;11.01;100.00
81641;BME280;74020;50.722;-1.944;2023-12-04T11:42:41;98835.03;;;10.94;100.00
81641;BME280;74020;50.722;-1.944;2023-12-04T11:45:06;98831.25;;;11.04;100.00
81641;BME280;74020;50.722;-1.944;2023-12-04T11:49:57;98828.32;;;10.94;100.00
81641;BME280;74020;50.722;-1.944;2023-12-04T11:52:32;98825.65;;;11.04;100.00
81641;BME280;74020;50.722;-1.944;2023-12-04T11:54:57;98824.78;;;11.10;100.00
81641;BME280;74020;50.722;-1.944;2023-12-04T11:57:21;98825.13;;;11.19;100.00
81641;BME280;74020;50.722;-1.944;2023-12-04T11:59:38;98822.15;;;11.27;99.78
81641;BME280;74020;50.722;-1.944;2023-12-04T12:02:07;98817.95;;;11.11;100.00
81641;BME280;74020;50.722;-1.944;2023-12-04T12:04:29;98816.79;;;11.03;100.00
81641;BME280;74020;50.722;-1.944;2023-12-04T12:06:54;98819.77;;;11.08;100.00
81641;BME280;74020;50.722;-1.944;2023-12-04T12:09:20;98818.76;;;11.00;100.00
81641;BME280;74020;50.722;-1.944;2023-12-04T12:11:45;98818.58;;;11.22;100.00
81641;BME280;74020;50.722;-1.944;2023-12-04T12:14:10;98818.19;;;11.29;100.00
81641;BME280;74020;50.722;-1.944;2023-12-04T12:16:36;98820.21;;;11.34;100.00
81641;BME280;74020;50.722;-1.944;2023-12-04T12:19:01;98814.87;;;11.08;100.00
81641;BME280;74020;50.722;-1.944;2023-12-04T12:21:27;98817.72;;;11.02;100.00
81641;BME280;74020;50.722;-1.944;2023-12-04T12:23:52;98817.60;;;11.05;100.00
81641;BME280;74020;50.722;-1.944;2023-12-04T12:26:17;98818.49;;;11.06;100.00
81641;BME280;74020;50.722;-1.944;2023-12-04T12:28:42;98816.89;;;11.00;100.00
81641;BME280;74020;50.722;-1.944;2023-12-04T12:31:08;98814.94;;;10.98;100.00
81641;BME280;74020;50.722;-1.944;2023-12-04T12:33:33;98815.43;;;11.22;100.00
81641;BME280;74020;50.722;-1.944;2023-12-04T12:36:00;98810.45;;;11.22;99.79
81641;BME280;74020;50.722;-1.944;2023-12-04T12:38:25;98809.43;;;11.32;100.00
81641;BME280;74020;50.722;-1.944;2023-12-04T12:40:49;98805.49;;;11.38;100.00
81641;BME280;74020;50.722;-1.944;2023-12-04T12:43:15;98804.96;;;11.55;100.00